Sweet Home, Texas
Current Conditions -  °F | °C
As of 4:35 AM on Thursday 27 Nov 2014 (Local Time) from KT20 Reporting Station
Clear Clear  
Wind Chill: 41°   Ceiling: Unl
Heat Index: 44°   Visibility: 10mi
Dew Point: 37°   Wind: 5mph
Humidity: 78%   Direction: 360°N
Pressure: 30.39"   Gusts: NA
Location:  29.35°N, 97.07°W
Report Text: KT20 271035Z AUTO 36004KT 10SM CLR 06/03 A3039 RMK AO2 T00640028
Loading
Personal Weather Stations






























Interactive Weather Map New forecast layout! Learn more

10-Day Weather Forecast

Advertisements
Track Severe Weather on mobile